Time;durP1;ratioP1;P1;durP2;ratioP2;P2;SDS_P1;SDS_P2;PMS_P1;PMS_P2;Temp;Humidity;BMP_temperature;BMP_pressure;BME280_temperature;BME280_humidity;BME280_pressure;Samples;Min_cycle;Max_cycle;Signal;HPM_P1;HPM_P2
2022/04/14 00:01:05;;;;;;;46.90;30.63;;;;;10.00;101520.00;;;;10503279;28;20943;-82
2022/04/14 00:06:07;;;;;;;45.70;29.03;;;;;9.90;101529.00;;;;10533524;28;20211;-82
2022/04/14 00:11:09;;;;;;;44.50;31.27;;;;;9.80;101517.00;;;;10533297;28;20257;-82
2022/04/14 00:16:11;;;;;;;53.10;35.03;;;;;9.80;101521.00;;;;10508523;28;20228;-82
2022/04/14 00:21:13;;;;;;;53.40;33.17;;;;;9.80;101520.00;;;;10525900;28;20286;-82
2022/04/14 00:26:16;;;;;;;52.50;34.97;;;;;9.80;101511.00;;;;10509336;28;20600;-82
2022/04/14 00:31:17;;;;;;;56.00;35.57;;;;;9.80;101507.00;;;;10517541;28;20246;-82
2022/04/14 00:36:20;;;;;;;53.27;33.30;;;;;9.80;101506.00;;;;10496657;28;20205;-83
2022/04/14 00:41:21;;;;;;;57.77;35.03;;;;;9.90;101505.00;;;;10513965;28;20220;-83
2022/04/14 00:46:23;;;;;;;52.07;33.37;;;;;9.90;101502.00;;;;10523600;28;20427;-82
2022/04/14 00:51:25;;;;;;;57.37;34.83;;;;;9.80;101491.00;;;;10513351;27;20195;-82
2022/04/14 00:56:27;;;;;;;59.80;35.93;;;;;9.90;101495.00;;;;10531952;28;20250;-82
2022/04/14 01:01:29;;;;;;;62.13;38.80;;;;;9.90;101497.00;;;;10539703;27;20196;-82
2022/04/14 01:06:32;;;;;;;62.87;40.03;;;;;10.00;101494.00;;;;10527722;28;20197;-82
2022/04/14 01:11:35;;;;;;;62.70;38.17;;;;;10.10;101493.00;;;;10524565;28;20193;-82
2022/04/14 01:16:37;;;;;;;63.90;38.43;;;;;10.10;101493.00;;;;10540326;28;20731;-82
2022/04/14 01:21:44;;;;;;;59.73;38.30;;;;;10.10;101494.00;;;;10532229;28;20585;-81
2022/04/14 01:26:46;;;;;;;62.47;37.23;;;;;10.00;101498.00;;;;10503798;28;20235;-82
2022/04/14 01:31:49;;;;;;;66.03;38.40;;;;;10.00;101496.00;;;;10510276;27;20280;-82
2022/04/14 01:36:51;;;;;;;57.80;35.43;;;;;9.90;101488.00;;;;10550826;28;20211;-82
2022/04/14 01:41:53;;;;;;;60.20;38.20;;;;;9.90;101484.00;;;;10562922;28;20230;-83
2022/04/14 01:46:55;;;;;;;68.43;41.90;;;;;10.00;101482.00;;;;10506511;28;20196;-82
2022/04/14 01:51:57;;;;;;;66.57;40.10;;;;;10.00;101491.00;;;;10526801;27;20192;-82
2022/04/14 01:56:59;;;;;;;70.97;42.47;;;;;10.00;101494.00;;;;10505633;28;20215;-82
2022/04/14 02:02:01;;;;;;;68.50;40.97;;;;;10.00;101500.00;;;;10550162;28;20292;-82
2022/04/14 02:07:05;;;;;;;73.10;42.80;;;;;10.00;101500.00;;;;10502873;28;20197;-82
2022/04/14 02:12:07;;;;;;;76.30;44.50;;;;;10.00;101495.00;;;;10510978;28;20200;-81
2022/04/14 02:17:09;;;;;;;75.37;42.30;;;;;10.00;101500.00;;;;10532337;28;20211;-82
2022/04/14 02:22:11;;;;;;;71.83;41.27;;;;;9.90;101511.00;;;;10519917;27;20287;-82
2022/04/14 02:27:13;;;;;;;78.03;43.27;;;;;9.90;101494.00;;;;10497029;28;20189;-82
2022/04/14 02:32:15;;;;;;;75.30;42.17;;;;;9.90;101494.00;;;;10507823;28;20196;-82
2022/04/14 02:37:16;;;;;;;74.90;41.83;;;;;9.90;101485.00;;;;10515915;28;20712;-82
2022/04/14 02:42:18;;;;;;;72.43;41.90;;;;;9.90;101481.00;;;;10524963;28;20212;-82
2022/04/14 02:47:20;;;;;;;83.57;43.13;;;;;9.80;101489.00;;;;10527648;28;20238;-82
2022/04/14 02:52:22;;;;;;;79.13;41.90;;;;;9.90;101506.00;;;;10526183;28;20250;-82
2022/04/14 02:57:24;;;;;;;68.43;39.57;;;;;9.80;101506.00;;;;10545949;27;20196;-81
2022/04/14 03:02:26;;;;;;;66.53;37.70;;;;;9.70;101509.00;;;;10532720;28;20203;-82
2022/04/14 03:07:28;;;;;;;68.80;37.63;;;;;9.50;101516.00;;;;10512240;28;20218;-82
2022/04/14 03:12:46;;;;;;;65.57;37.47;;;;;9.50;101517.00;;;;10544697;27;20358;-81
2022/04/14 03:17:50;;;;;;;60.80;34.63;;;;;9.40;101513.00;;;;10478820;28;20209;-82
2022/04/14 03:22:55;;;;;;;67.37;37.23;;;;;9.40;101520.00;;;;10513638;27;20200;-82
2022/04/14 03:27:57;;;;;;;68.37;36.07;;;;;9.30;101514.00;;;;10573997;27;20260;-82
2022/04/14 03:32:59;;;;;;;67.97;36.40;;;;;9.30;101505.00;;;;10527505;28;20243;-82
2022/04/14 03:38:01;;;;;;;55.30;35.87;;;;;9.20;101520.00;;;;10512158;28;20228;-82
2022/04/14 03:43:23;;;;;;;63.93;35.83;;;;;9.20;101517.00;;;;10517328;28;20554;-81
2022/04/14 03:48:25;;;;;;;62.37;35.77;;;;;9.10;101515.00;;;;10546231;27;20618;-82
2022/04/14 03:53:27;;;;;;;64.67;38.10;;;;;9.00;101505.00;;;;10543952;28;20218;-82
2022/04/14 03:58:29;;;;;;;64.57;38.67;;;;;8.90;101503.00;;;;10527062;28;20260;-82
2022/04/14 04:03:31;;;;;;;75.63;39.80;;;;;8.90;101519.00;;;;10536724;28;20204;-81
2022/04/14 04:08:33;;;;;;;67.13;37.00;;;;;8.90;101525.00;;;;10513984;28;20195;-82
2022/04/14 04:13:34;;;;;;;59.60;35.90;;;;;8.90;101524.00;;;;10516220;28;20197;-82
2022/04/14 04:18:36;;;;;;;57.50;34.23;;;;;8.80;101529.00;;;;10487043;28;20247;-82
2022/04/14 04:23:38;;;;;;;62.77;35.30;;;;;8.60;101527.00;;;;10561489;28;20582;-82
2022/04/14 04:28:40;;;;;;;57.90;32.87;;;;;8.60;101534.00;;;;10521240;28;20258;-82
2022/04/14 04:33:47;;;;;;;55.90;33.90;;;;;8.50;101537.00;;;;10498022;28;20674;-82
2022/04/14 04:38:52;;;;;;;56.23;35.07;;;;;8.50;101541.00;;;;10481766;28;20332;-83
2022/04/14 04:43:54;;;;;;;66.63;36.37;;;;;8.50;101547.00;;;;10521957;28;20197;-82
2022/04/14 04:48:56;;;;;;;67.70;35.73;;;;;8.40;101555.00;;;;10528913;28;20634;-82
2022/04/14 04:53:58;;;;;;;64.97;36.90;;;;;8.30;101557.00;;;;10502715;28;20197;-82
2022/04/14 04:59:00;;;;;;;74.80;41.67;;;;;8.30;101567.00;;;;10516444;28;20652;-82
2022/04/14 05:04:02;;;;;;;82.73;40.63;;;;;8.40;101560.00;;;;10518878;28;20218;-82
2022/04/14 05:09:04;;;;;;;76.30;41.37;;;;;8.40;101569.00;;;;10530620;28;20212;-82
2022/04/14 05:14:08;;;;;;;75.53;40.60;;;;;8.50;101576.00;;;;10514546;28;20196;-82
2022/04/14 05:19:10;;;;;;;83.13;42.97;;;;;8.50;101580.00;;;;10508297;28;20209;-83
2022/04/14 05:24:12;;;;;;;84.13;42.30;;;;;8.50;101579.00;;;;10503061;28;20355;-83
2022/04/14 05:29:14;;;;;;;96.47;46.63;;;;;8.80;101581.00;;;;10510963;28;20192;-82
2022/04/14 05:34:16;;;;;;;101.23;49.83;;;;;9.10;101584.00;;;;10498500;28;20192;-83
2022/04/14 05:39:20;;;;;;;99.13;52.70;;;;;9.70;101582.00;;;;10485545;28;20223;-83
2022/04/14 05:44:22;;;;;;;83.20;48.57;;;;;10.20;101590.00;;;;10538325;28;20282;-82
2022/04/14 05:49:24;;;;;;;86.07;51.20;;;;;10.40;101576.00;;;;10531619;28;20244;-83
2022/04/14 05:54:26;;;;;;;84.17;50.17;;;;;10.70;101581.00;;;;10537882;28;20234;-83
2022/04/14 05:59:28;;;;;;;87.70;51.13;;;;;11.00;101587.00;;;;10546887;28;20238;-83
2022/04/14 06:04:30;;;;;;;89.90;52.27;;;;;11.40;101576.00;;;;10530111;28;20219;-82
2022/04/14 06:09:32;;;;;;;88.43;49.90;;;;;11.90;101587.00;;;;10510170;28;20234;-83
2022/04/14 06:14:34;;;;;;;92.47;53.73;;;;;12.20;101591.00;;;;10499201;27;20572;-83
2022/04/14 06:19:38;;;;;;;92.10;53.60;;;;;12.30;101576.00;;;;10506643;28;20196;-82
2022/04/14 06:24:40;;;;;;;76.23;51.07;;;;;12.60;101585.00;;;;10523742;27;20926;-83
2022/04/14 06:29:42;;;;;;;65.77;46.83;;;;;13.30;101571.00;;;;10512238;27;20594;-83
2022/04/14 06:34:44;;;;;;;60.00;44.23;;;;;13.90;101577.00;;;;10516310;28;20236;-83
2022/04/14 06:39:45;;;;;;;45.00;38.53;;;;;14.40;101581.00;;;;10528440;28;20281;-83
2022/04/14 06:44:48;;;;;;;35.90;31.83;;;;;14.90;101570.00;;;;10523715;28;20202;-82
2022/04/14 06:49:49;;;;;;;30.30;26.93;;;;;15.40;101578.00;;;;10517908;28;20204;-83
2022/04/14 06:54:51;;;;;;;25.03;20.07;;;;;15.70;101570.00;;;;10509554;28;20303;-83
2022/04/14 06:59:53;;;;;;;20.00;16.83;;;;;15.90;101586.00;;;;10514844;27;20280;-83
2022/04/14 07:04:55;;;;;;;26.08;17.48;;;;;16.10;101598.00;;;;10527708;27;20204;-82
2022/04/14 07:09:58;;;;;;;21.42;16.80;;;;;16.30;101607.00;;;;10498041;28;20208;-82
2022/04/14 07:15:01;;;;;;;20.67;16.27;;;;;16.10;101603.00;;;;10522819;27;20208;-82
2022/04/14 07:20:05;;;;;;;20.08;17.33;;;;;16.70;101608.00;;;;10528668;27;20259;-81
2022/04/14 07:25:07;;;;;;;22.35;16.42;;;;;16.50;101614.00;;;;10521242;28;20207;-82
2022/04/14 07:30:10;;;;;;;20.50;15.52;;;;;15.50;101629.00;;;;10523841;27;20210;-82
2022/04/14 07:35:13;;;;;;;21.67;16.37;;;;;15.30;101632.00;;;;10540249;28;20297;-82
2022/04/14 07:40:15;;;;;;;20.63;18.33;;;;;16.20;101628.00;;;;10526820;28;20380;-82
2022/04/14 07:45:17;;;;;;;21.10;17.80;;;;;17.30;101644.00;;;;10519034;28;20195;-82
2022/04/14 07:50:20;;;;;;;22.45;17.05;;;;;17.20;101652.00;;;;10532582;27;20196;-82
2022/04/14 07:55:29;;;;;;;21.48;17.23;;;;;17.10;101660.00;;;;10544766;27;20219;-82
2022/04/14 08:00:31;;;;;;;20.00;17.10;;;;;17.80;101653.00;;;;10493465;28;20192;-82
2022/04/14 08:05:41;;;;;;;22.38;17.20;;;;;18.40;101668.00;;;;10498243;27;20601;-82
2022/04/14 08:10:46;;;;;;;17.00;14.63;;;;;18.70;101656.00;;;;10501656;28;20653;-81
2022/04/14 08:15:49;;;;;;;18.67;15.00;;;;;18.90;101656.00;;;;10556373;27;20207;-82
2022/04/14 08:20:51;;;;;;;15.65;13.90;;;;;19.20;101670.00;;;;10542264;28;20192;-81
2022/04/14 08:25:53;;;;;;;16.67;13.57;;;;;19.70;101673.00;;;;10582351;28;20233;-81
2022/04/14 08:31:16;;;;;;;16.33;12.73;;;;;20.00;101678.00;;;;10566337;28;20180;-82
2022/04/14 08:36:21;;;;;;;16.58;12.52;;;;;20.00;101680.00;;;;10525261;28;20226;-82
2022/04/14 08:41:29;;;;;;;12.30;10.30;;;;;20.30;101682.00;;;;10568625;28;20262;-81
2022/04/14 08:46:31;;;;;;;14.88;11.30;;;;;20.70;101679.00;;;;10548657;28;20196;-81
2022/04/14 08:51:36;;;;;;;12.57;10.25;;;;;21.10;101684.00;;;;10542244;28;20224;-82
2022/04/14 08:56:41;;;;;;;12.35;9.27;;;;;21.30;101673.00;;;;10544129;28;20212;-81
2022/04/14 09:01:43;;;;;;;14.25;9.25;;;;;21.50;101682.00;;;;10526829;28;20861;-82
2022/04/14 09:06:45;;;;;;;12.88;9.10;;;;;21.80;101677.00;;;;10504854;28;20210;-82
2022/04/14 09:11:47;;;;;;;13.13;6.90;;;;;21.90;101671.00;;;;10546153;27;20193;-82
2022/04/14 09:16:49;;;;;;;10.68;7.13;;;;;22.10;101668.00;;;;10555360;28;20205;-81
2022/04/14 09:22:00;;;;;;;10.25;7.55;;;;;22.30;101668.00;;;;10570193;27;20606;-78
2022/04/14 09:27:02;;;;;;;6.75;3.65;;;;;22.30;101657.00;;;;10568277;27;20180;-78
2022/04/14 09:32:04;;;;;;;5.97;3.80;;;;;22.60;101656.00;;;;10521609;27;20199;-80
2022/04/14 09:37:08;;;;;;;5.38;3.35;;;;;22.90;101663.00;;;;10553093;27;20214;-81
2022/04/14 09:42:13;;;;;;;6.13;2.70;;;;;23.30;101639.00;;;;10566177;27;20996;-78
2022/04/14 09:47:39;;;;;;;7.88;3.30;;;;;23.50;101617.00;;;;10529976;27;20200;-78
2022/04/14 09:52:58;;;;;;;7.47;3.55;;;;;23.90;101625.00;;;;10529838;27;20713;-78
2022/04/14 09:58:09;;;;;;;3.97;2.47;;;;;24.20;101621.00;;;;10508015;28;20216;-80
2022/04/14 10:03:18;;;;;;;2.13;0.80;;;;;24.40;101622.00;;;;10529037;28;20199;-78
2022/04/14 10:08:22;;;;;;;4.68;2.28;;;;;24.60;101626.00;;;;10515034;27;20191;-81
2022/04/14 10:13:34;;;;;;;3.30;1.70;;;;;24.70;101623.00;;;;10551090;28;20208;-81
2022/04/14 10:18:38;;;;;;;4.85;2.10;;;;;24.50;101638.00;;;;10527440;28;20300;-78
2022/04/14 10:23:41;;;;;;;3.22;1.80;;;;;24.60;101642.00;;;;10537923;27;20188;-78
2022/04/14 10:28:44;;;;;;;2.60;1.67;;;;;24.20;101646.00;;;;10527973;27;20199;-80
2022/04/14 10:33:48;;;;;;;2.97;2.15;;;;;24.70;101658.00;;;;10550222;28;20276;-80
2022/04/14 10:38:50;;;;;;;5.20;2.67;;;;;24.80;101654.00;;;;10493284;28;20739;-80
2022/04/14 10:43:52;;;;;;;3.95;2.90;;;;;25.30;101647.00;;;;10553635;28;20206;-80
2022/04/14 10:49:10;;;;;;;3.22;2.67;;;;;25.60;101659.00;;;;10569681;28;20704;-80
2022/04/14 10:54:15;;;;;;;4.55;2.80;;;;;26.00;101662.00;;;;10539563;27;20191;-79
2022/04/14 10:59:32;;;;;;;3.83;2.70;;;;;25.20;101654.00;;;;10551903;27;20265;-79
2022/04/14 11:04:41;;;;;;;3.72;2.95;;;;;24.80;101647.00;;;;10521118;28;20210;-79
2022/04/14 11:09:45;;;;;;;5.07;2.70;;;;;26.00;101646.00;;;;10556314;27;20190;-79
2022/04/14 11:14:49;;;;;;;4.72;2.47;;;;;26.60;101645.00;;;;10512205;28;20211;-80
2022/04/14 11:19:50;;;;;;;4.03;2.88;;;;;26.20;101637.00;;;;10523754;28;20295;-80
2022/04/14 11:24:52;;;;;;;3.70;3.20;;;;;25.50;101633.00;;;;10542621;28;20253;-80
2022/04/14 11:29:58;;;;;;;5.50;4.53;;;;;25.60;101634.00;;;;10542225;28;20241;-80
2022/04/14 11:35:08;;;;;;;9.77;4.68;;;;;25.60;101626.00;;;;10516364;28;20193;-80
2022/04/14 11:40:16;;;;;;;5.43;3.88;;;;;25.30;101627.00;;;;10565825;28;20219;-80
2022/04/14 11:45:28;;;;;;;5.57;4.72;;;;;22.90;101645.00;;;;10549321;28;20203;-80
2022/04/14 11:50:34;;;;;;;10.23;6.93;;;;;21.50;101633.00;;;;10534851;28;20710;-80
2022/04/14 11:55:38;;;;;;;7.95;6.50;;;;;21.10;101642.00;;;;10545584;28;20239;-81
2022/04/14 12:00:50;;;;;;;8.15;5.97;;;;;21.40;101640.00;;;;10569285;28;20196;-80
2022/04/14 12:05:52;;;;;;;10.32;5.25;;;;;21.50;101622.00;;;;10577228;28;20203;-80
2022/04/14 12:10:55;;;;;;;7.32;4.65;;;;;23.10;101624.00;;;;10550924;28;20195;-80
2022/04/14 12:16:00;;;;;;;8.75;4.38;;;;;23.80;101634.00;;;;10574389;27;20200;-80
2022/04/14 12:21:04;;;;;;;8.50;5.07;;;;;24.80;101623.00;;;;10555612;28;20197;-80
2022/04/14 12:26:06;;;;;;;9.73;5.78;;;;;25.90;101612.00;;;;10598538;28;20192;-80
2022/04/14 12:31:10;;;;;;;9.07;6.18;;;;;26.20;101609.00;;;;10574173;28;20185;-80
2022/04/14 12:36:12;;;;;;;6.63;5.13;;;;;26.40;101617.00;;;;10616693;28;20465;-80
2022/04/14 12:41:19;;;;;;;9.60;5.75;;;;;26.50;101613.00;;;;10585969;27;20216;-81
2022/04/14 12:46:28;;;;;;;7.63;4.95;;;;;26.40;101624.00;;;;10574982;28;20279;-80
2022/04/14 12:51:45;;;;;;;13.48;8.45;;;;;23.30;101627.00;;;;10559347;27;20197;-81
2022/04/14 12:57:04;;;;;;;10.38;7.90;;;;;21.20;101634.00;;;;10522183;28;20242;-79
2022/04/14 13:02:08;;;;;;;11.15;8.13;;;;;20.60;101627.00;;;;10554533;28;20191;-80
2022/04/14 13:07:15;;;;;;;12.73;9.68;;;;;21.00;101635.00;;;;10551276;28;20248;-81
2022/04/14 13:12:39;;;;;;;15.80;12.18;;;;;21.30;101637.00;;;;10537808;28;20287;-80
2022/04/14 13:17:42;;;;;;;15.50;12.15;;;;;21.70;101637.00;;;;10546002;28;20239;-80
2022/04/14 13:22:53;;;;;;;12.38;10.65;;;;;22.00;101645.00;;;;10533225;28;20196;-80
2022/04/14 13:27:55;;;;;;;16.20;10.45;;;;;21.70;101645.00;;;;10549052;27;20703;-81
2022/04/14 13:32:59;;;;;;;14.68;11.02;;;;;21.40;101649.00;;;;10555618;28;20555;-80
2022/04/14 13:38:02;;;;;;;14.77;10.80;;;;;21.80;101647.00;;;;10536595;28;20902;-80
2022/04/14 13:43:07;;;;;;;12.63;9.60;;;;;23.00;101643.00;;;;10553398;28;20214;-80
2022/04/14 13:48:08;;;;;;;12.57;10.18;;;;;23.40;101637.00;;;;10527264;28;20663;-81
2022/04/14 13:53:11;;;;;;;14.10;10.05;;;;;23.60;101622.00;;;;10550763;27;20284;-81
2022/04/14 13:58:13;;;;;;;18.77;11.82;;;;;26.60;101605.00;;;;10543119;28;20204;-81
2022/04/14 14:03:17;;;;;;;12.30;9.82;;;;;26.00;101621.00;;;;10561510;28;20189;-81
2022/04/14 14:08:19;;;;;;;12.57;9.80;;;;;26.80;101606.00;;;;10539411;28;20223;-81
2022/04/14 14:13:21;;;;;;;14.52;9.40;;;;;27.90;101606.00;;;;10537636;27;20192;-81
2022/04/14 14:18:23;;;;;;;12.38;8.48;;;;;27.00;101623.00;;;;10535734;28;20667;-81
2022/04/14 14:23:25;;;;;;;13.82;8.25;;;;;26.10;101636.00;;;;10548383;28;20275;-81
2022/04/14 14:28:27;;;;;;;12.27;8.45;;;;;25.40;101618.00;;;;10537510;28;20211;-81
2022/04/14 14:33:29;;;;;;;12.35;8.55;;;;;26.40;101631.00;;;;10532857;28;20630;-80
2022/04/14 14:38:32;;;;;;;10.00;7.63;;;;;24.40;101631.00;;;;10562194;27;20299;-81
2022/04/14 14:43:37;;;;;;;11.15;7.90;;;;;24.20;101624.00;;;;10517930;28;20566;-81
2022/04/14 14:48:39;;;;;;;9.73;7.82;;;;;25.40;101627.00;;;;10539120;27;20200;-82
2022/04/14 14:53:41;;;;;;;10.43;7.20;;;;;26.00;101604.00;;;;10549622;27;20898;-82
2022/04/14 15:04:04;;;;;;;5.70;5.00;;;;;23.50;101625.00;;;;10551017;27;20203;-82
2022/04/14 15:09:06;;;;;;;7.13;5.10;;;;;22.50;101631.00;;;;10532465;27;20295;-82
2022/04/14 15:14:08;;;;;;;10.27;6.07;;;;;24.10;101631.00;;;;10532150;27;20212;-82
2022/04/14 15:19:10;;;;;;;8.85;5.72;;;;;23.90;101639.00;;;;10504272;28;20227;-82
2022/04/14 15:24:12;;;;;;;8.15;6.25;;;;;22.90;101637.00;;;;10513068;28;20731;-81
2022/04/14 15:29:14;;;;;;;10.25;7.20;;;;;22.70;101635.00;;;;10529244;28;20253;-82
2022/04/14 15:34:17;;;;;;;10.88;6.45;;;;;22.60;101639.00;;;;10516553;28;20195;-81
2022/04/14 15:39:19;;;;;;;8.98;6.93;;;;;21.30;101652.00;;;;10513623;28;20279;-82
2022/04/14 15:44:21;;;;;;;11.38;7.80;;;;;20.50;101652.00;;;;10536328;28;20192;-82
2022/04/14 15:49:22;;;;;;;8.80;5.90;;;;;20.40;101647.00;;;;10528459;28;20551;-82
2022/04/14 15:54:36;;;;;;;10.27;5.47;;;;;20.40;101656.00;;;;10537721;28;20195;-82
2022/04/14 15:59:40;;;;;;;6.70;5.63;;;;;20.30;101651.00;;;;10519631;28;20240;-82
2022/04/14 16:04:43;;;;;;;8.52;5.25;;;;;20.00;101662.00;;;;10517809;28;20184;-82
2022/04/14 16:15:06;;;;;;;7.93;4.47;;;;;20.10;101661.00;;;;10528003;28;20228;-82
2022/04/14 16:20:09;;;;;;;7.15;4.18;;;;;20.40;101659.00;;;;10528314;28;20240;-81
2022/04/14 16:25:11;;;;;;;7.65;4.63;;;;;20.90;101666.00;;;;10518038;28;20200;-82
2022/04/14 16:30:13;;;;;;;8.45;4.90;;;;;20.70;101673.00;;;;10553917;28;20180;-81
2022/04/14 16:35:15;;;;;;;9.73;4.65;;;;;20.40;101674.00;;;;10523959;28;20193;-81
2022/04/14 16:40:17;;;;;;;10.40;7.03;;;;;19.90;101676.00;;;;10520661;28;20216;-82
2022/04/14 16:45:20;;;;;;;11.52;7.47;;;;;19.40;101681.00;;;;10513888;28;20207;-83
2022/04/14 16:50:23;;;;;;;10.95;6.95;;;;;19.00;101686.00;;;;10513697;28;20666;-82
2022/04/14 16:55:25;;;;;;;10.07;7.05;;;;;18.70;101687.00;;;;10550146;28;20253;-83
2022/04/14 17:00:27;;;;;;;10.05;6.63;;;;;18.50;101695.00;;;;10527042;28;20304;-81
2022/04/14 17:05:29;;;;;;;9.38;6.82;;;;;18.30;101697.00;;;;10534711;28;20254;-83
2022/04/14 17:10:32;;;;;;;9.80;6.70;;;;;18.20;101699.00;;;;10510739;28;20185;-82
2022/04/14 17:15:34;;;;;;;9.68;6.63;;;;;18.00;101713.00;;;;10531932;28;20226;-82
2022/04/14 17:20:37;;;;;;;10.43;7.20;;;;;17.90;101708.00;;;;10494668;28;20249;-82
2022/04/14 17:25:39;;;;;;;12.07;7.93;;;;;17.80;101717.00;;;;10541950;27;20196;-82
2022/04/14 17:30:41;;;;;;;12.30;7.10;;;;;17.70;101721.00;;;;10546852;28;20280;-82
2022/04/14 17:35:44;;;;;;;14.00;7.38;;;;;17.50;101720.00;;;;10527750;28;20193;-82
2022/04/14 17:40:48;;;;;;;13.13;7.43;;;;;17.30;101724.00;;;;10556426;27;20224;-82
2022/04/14 17:45:50;;;;;;;12.55;6.88;;;;;17.10;101734.00;;;;10516517;28;20204;-83
2022/04/14 17:50:52;;;;;;;12.52;7.80;;;;;17.00;101739.00;;;;10511605;28;20236;-82
2022/04/14 17:55:54;;;;;;;12.50;7.18;;;;;16.80;101743.00;;;;10541167;28;20189;-82
2022/04/14 18:01:00;;;;;;;9.60;7.32;;;;;16.60;101746.00;;;;10539334;28;20192;-82
2022/04/14 18:06:02;;;;;;;12.77;8.10;;;;;16.40;101745.00;;;;10526220;27;20215;-81
2022/04/14 18:11:04;;;;;;;13.82;8.10;;;;;16.20;101744.00;;;;10524550;28;20199;-82
2022/04/14 18:16:07;;;;;;;14.43;7.88;;;;;16.00;101745.00;;;;10540092;28;20195;-82
2022/04/14 18:21:09;;;;;;;12.10;7.73;;;;;15.80;101768.00;;;;10545930;28;20670;-81
2022/04/14 18:26:11;;;;;;;13.43;7.10;;;;;15.60;101766.00;;;;10559761;28;20191;-81
2022/04/14 18:31:13;;;;;;;14.07;7.70;;;;;15.40;101781.00;;;;10556275;28;20246;-81
2022/04/14 18:36:15;;;;;;;10.73;6.30;;;;;15.30;101780.00;;;;10540972;27;20291;-81
2022/04/14 18:41:17;;;;;;;12.20;6.50;;;;;15.20;101787.00;;;;10551509;28;20300;-81
2022/04/14 18:46:20;;;;;;;9.97;6.10;;;;;15.00;101801.00;;;;10528207;28;20246;-81
2022/04/14 18:51:22;;;;;;;12.50;6.53;;;;;14.90;101798.00;;;;10514300;28;20288;-81
2022/04/14 18:56:24;;;;;;;12.13;5.93;;;;;14.70;101804.00;;;;10524813;28;20204;-81
2022/04/14 19:01:26;;;;;;;10.93;6.47;;;;;14.50;101818.00;;;;10546347;28;20244;-81
2022/04/14 19:06:28;;;;;;;12.90;5.50;;;;;14.30;101824.00;;;;10517870;28;20274;-81
2022/04/14 19:11:30;;;;;;;12.60;6.63;;;;;14.10;101815.00;;;;10531046;28;20197;-81
2022/04/14 19:16:32;;;;;;;12.13;6.13;;;;;14.00;101821.00;;;;10529451;27;20212;-81
2022/04/14 19:21:34;;;;;;;10.90;6.07;;;;;13.80;101828.00;;;;10543813;28;20192;-81
2022/04/14 19:26:36;;;;;;;13.77;7.20;;;;;13.60;101828.00;;;;10507309;28;20284;-81
2022/04/14 19:31:38;;;;;;;17.87;8.93;;;;;13.40;101827.00;;;;10556857;28;20207;-81
2022/04/14 19:36:41;;;;;;;12.47;8.07;;;;;13.30;101838.00;;;;10544440;28;20204;-81
2022/04/14 19:41:43;;;;;;;14.47;8.27;;;;;13.10;101832.00;;;;10526613;28;20240;-81
2022/04/14 19:46:45;;;;;;;12.23;7.37;;;;;13.10;101844.00;;;;10505548;28;20255;-81
2022/04/14 19:51:47;;;;;;;10.90;7.43;;;;;13.00;101849.00;;;;10504909;28;20264;-81
2022/04/14 19:56:49;;;;;;;10.43;7.47;;;;;12.90;101851.00;;;;10547071;28;20209;-81
2022/04/14 20:01:53;;;;;;;12.20;8.13;;;;;12.80;101854.00;;;;10516188;28;20185;-82
2022/04/14 20:06:55;;;;;;;14.00;7.10;;;;;12.60;101860.00;;;;10508902;28;20185;-80
2022/04/14 20:11:56;;;;;;;11.77;7.13;;;;;12.40;101860.00;;;;10554826;28;20261;-81
2022/04/14 20:16:58;;;;;;;13.23;7.83;;;;;12.40;101860.00;;;;10540648;28;20291;-81
2022/04/14 20:22:02;;;;;;;13.43;7.60;;;;;12.30;101870.00;;;;10529929;28;20196;-82
2022/04/14 20:27:03;;;;;;;12.40;7.77;;;;;12.20;101871.00;;;;10516679;28;20192;-81
2022/04/14 20:32:08;;;;;;;13.20;8.63;;;;;12.10;101870.00;;;;10535843;28;20192;-81
2022/04/14 20:37:11;;;;;;;12.67;9.87;;;;;12.00;101885.00;;;;10536761;28;20197;-80
2022/04/14 20:42:13;;;;;;;17.83;9.90;;;;;11.90;101887.00;;;;10522741;28;20189;-81
2022/04/14 20:47:15;;;;;;;13.17;9.20;;;;;11.80;101880.00;;;;10516312;28;20257;-81
2022/04/14 20:52:18;;;;;;;13.53;9.73;;;;;11.70;101888.00;;;;10517639;28;20212;-81
2022/04/14 20:57:20;;;;;;;17.10;10.80;;;;;11.60;101883.00;;;;10565433;28;20212;-81
2022/04/14 21:02:22;;;;;;;16.70;11.27;;;;;11.50;101889.00;;;;10528569;28;20687;-81
2022/04/14 21:07:24;;;;;;;20.60;12.17;;;;;11.40;101889.00;;;;10530733;28;20192;-81
2022/04/14 21:12:26;;;;;;;21.60;13.47;;;;;11.30;101893.00;;;;10497465;28;20193;-82
2022/04/14 21:17:28;;;;;;;18.30;11.20;;;;;11.20;101892.00;;;;10535319;28;20205;-81
2022/04/14 21:22:31;;;;;;;19.53;11.90;;;;;11.10;101897.00;;;;10582590;27;20232;-81
2022/04/14 21:27:33;;;;;;;21.10;13.93;;;;;11.00;101901.00;;;;10533663;28;20280;-81
2022/04/14 21:32:35;;;;;;;20.37;13.80;;;;;11.00;101905.00;;;;10518293;28;20189;-81
2022/04/14 21:37:37;;;;;;;24.80;14.63;;;;;10.90;101912.00;;;;10516227;28;20217;-81
2022/04/14 21:42:42;;;;;;;24.03;15.03;;;;;10.80;101907.00;;;;10516008;27;20667;-81
2022/04/14 21:47:47;;;;;;;23.73;14.43;;;;;10.70;101917.00;;;;10551005;28;20185;-80
2022/04/14 21:52:49;;;;;;;30.20;15.17;;;;;10.70;101917.00;;;;10535944;28;20643;-81
2022/04/14 21:57:51;;;;;;;27.27;16.33;;;;;10.60;101912.00;;;;10532650;28;20212;-81
2022/04/14 22:02:53;;;;;;;22.80;16.40;;;;;10.50;101905.00;;;;10568295;28;20270;-81
2022/04/14 22:07:55;;;;;;;24.23;17.03;;;;;10.40;101906.00;;;;10532955;28;20188;-81
2022/04/14 22:12:57;;;;;;;29.83;18.77;;;;;10.40;101900.00;;;;10546838;28;20241;-81
2022/04/14 22:17:59;;;;;;;27.57;17.27;;;;;10.30;101899.00;;;;10522218;28;20201;-81
2022/04/14 22:23:01;;;;;;;28.10;18.20;;;;;10.20;101913.00;;;;10511086;28;20222;-81
2022/04/14 22:28:04;;;;;;;30.00;20.53;;;;;10.20;101914.00;;;;10563812;28;20199;-81
2022/04/14 22:33:06;;;;;;;29.70;20.93;;;;;10.10;101916.00;;;;10547085;28;20196;-81
2022/04/14 22:38:08;;;;;;;33.13;21.80;;;;;10.10;101914.00;;;;10565194;28;20307;-81
2022/04/14 22:43:10;;;;;;;35.53;23.33;;;;;10.00;101925.00;;;;10546912;28;20189;-81
2022/04/14 22:48:12;;;;;;;32.73;21.33;;;;;9.90;101927.00;;;;10547402;28;20200;-82
2022/04/14 22:53:14;;;;;;;34.40;21.33;;;;;9.80;101934.00;;;;10546857;28;20200;-81
2022/04/14 22:58:17;;;;;;;37.13;22.90;;;;;9.80;101932.00;;;;10545633;28;20199;-81
2022/04/14 23:03:19;;;;;;;32.13;22.73;;;;;9.70;101942.00;;;;10545930;28;20192;-81
2022/04/14 23:08:21;;;;;;;30.87;22.33;;;;;9.70;101941.00;;;;10532602;28;20193;-81
2022/04/14 23:13:23;;;;;;;33.73;22.47;;;;;9.60;101941.00;;;;10518662;28;20243;-81
2022/04/14 23:18:25;;;;;;;41.43;23.23;;;;;9.50;101948.00;;;;10501480;28;20231;-82
2022/04/14 23:23:27;;;;;;;34.50;22.17;;;;;9.40;101946.00;;;;10541964;28;20677;-81
2022/04/14 23:28:29;;;;;;;28.37;21.63;;;;;9.30;101948.00;;;;10542298;28;20189;-81
2022/04/14 23:33:31;;;;;;;29.67;20.13;;;;;9.30;101954.00;;;;10507033;28;20265;-81
2022/04/14 23:38:33;;;;;;;30.27;21.53;;;;;9.20;101949.00;;;;10530092;28;20215;-81
2022/04/14 23:43:36;;;;;;;31.93;21.80;;;;;9.10;101951.00;;;;10531235;28;20706;-81
2022/04/14 23:48:38;;;;;;;35.87;23.27;;;;;9.00;101956.00;;;;10545513;28;20192;-81
2022/04/14 23:53:40;;;;;;;37.53;25.00;;;;;9.00;101963.00;;;;10520503;28;20203;-81
2022/04/14 23:58:42;;;;;;;43.83;27.33;;;;;9.00;101968.00;;;;10520799;28;20303;-81
